< < Back
Terminal Aerodrome Forecast


Current Version              Previous Versions:   1  2  3  4  5  6  7  8  9  

Terminal Aerodrome Forecast

880
FTUS42 KFFC 230500
TAFFTY
TAF
KFTY 230538Z 2306/2406 00000KT P6SM SKC
     FM231600 32005KT P6SM SKC
     FM240100 00000KT P6SM SCT250=

Latest METAR

800
SAUS70 KWBC 230600 RRB
MTRFTY
METAR KFTY 230553Z 00000KT 10SM CLR 09/05 A3011 RMK AO2 SLP192 T00890050
10150 20078 58004 $


USA.gov is the U.S. government's official web portal to all federal, state and local government web resources and services.